PWSweather.com
Personal Weather Stations
Station Observations
KCOBLACK1
Chalet Park, Black Hawk, CO 80422

Chalet ParkBlack Hawk, CO 80422

Lat: 39.8294, Lon: -105.48

Elevation: 9370

Station Type: Vantage Pro2

http://www.oscaranddeb.com/weather

High Low Average
Temperature 26.3°F-3.2°C 12.1°F-11.1°C 19.8°F-6.8°C
Dew Point 11.6°F-11.3°C 1.4°F-17.0°C 5.3°F-14.8°C
Winds 59.0 mph 95.0 kmh 1.0 mph 1.6 kmh 21.0 mph WSW33.8 kmh WSW
Wind Gusts 75.0 mph120.7 kmh 14.0 mph22.5 kmh 43.0 mph69.2 kmh
Humidity 69% 47% 53%
Pressure 30.02 in1016.6 mb 29.84 in1010.5 mb -
Precipitation 0.01 in0.3 mm - -
Hour Temp Dew Point Humidity Winds Wind Gusts Pressure Precip Precip Rate Daily Precip Total
12:00 AM 12.1°F-11.1°C 3.9°F-15.6°C 69% 14.0 mph W22.5 kmh W 29.0 mph46.7 kmh 30.01 in1016.3 mb 0.00 in0.0 mm 0.00 in/hr0.0 mm/hr 0.00 in0.0 mm
12:05 AM 12.3°F-10.9°C 4.1°F-15.5°C 69% 17.0 mph SSW27.4 kmh SSW 34.0 mph54.7 kmh 30.01 in1016.3 mb 0.00 in0.0 mm 0.00 in/hr0.0 mm/hr 0.00 in0.0 mm
12:12 AM 12.6°F-10.8°C 4.3°F-15.4°C 69% 22.0 mph W35.4 kmh W 35.0 mph56.3 kmh 30.01 in1016.3 mb 0.00 in0.0 mm 0.00 in/hr0.0 mm/hr 0.00 in0.0 mm
12:15 AM 12.8°F-10.7°C 4.2°F-15.4°C 68% 23.0 mph W37.0 kmh W 40.0 mph64.4 kmh 30.01 in1016.3 mb 0.00 in0.0 mm 0.00 in/hr0.0 mm/hr 0.00 in0.0 mm
12:20 AM 13.1°F-10.5°C 4.2°F-15.4°C 67% 22.0 mph W35.4 kmh W 40.0 mph64.4 kmh 30.01 in1016.3 mb 0.00 in0.0 mm 0.00 in/hr0.0 mm/hr 0.00 in0.0 mm
12:25 AM 13.5°F-10.3°C 4.2°F-15.4°C 66% 14.0 mph SW22.5 kmh SW 35.0 mph56.3 kmh 30.01 in1016.3 mb 0.00 in0.0 mm 0.00 in/hr0.0 mm/hr 0.00 in0.0 mm
12:30 AM 13.8°F-10.1°C 4.2°F-15.4°C 65% 20.0 mph W32.2 kmh W 39.0 mph62.8 kmh 30.02 in1016.6 mb 0.00 in0.0 mm 0.00 in/hr0.0 mm/hr 0.00 in0.0 mm
12:35 AM 13.8°F-10.1°C 4.2°F-15.4°C 65% 20.0 mph WSW32.2 kmh WSW 38.0 mph61.2 kmh 30.02 in1016.6 mb 0.00 in0.0 mm 0.00 in/hr0.0 mm/hr 0.00 in0.0 mm
12:40 AM 13.8°F-10.1°C 4.2°F-15.4°C 65% 29.0 mph WSW46.7 kmh WSW 40.0 mph64.4 kmh 30.02 in1016.6 mb 0.00 in0.0 mm 0.00 in/hr0.0 mm/hr 0.00 in0.0 mm
12:45 AM 13.8°F-10.1°C 4.5°F-15.3°C 66% 22.0 mph WSW35.4 kmh WSW 42.0 mph67.6 kmh 30.00 in1015.9 mb 0.00 in0.0 mm 0.00 in/hr0.0 mm/hr 0.00 in0.0 mm
12:50 AM 13.5°F-10.3°C 4.6°F-15.2°C 67% 17.0 mph W27.4 kmh W 35.0 mph56.3 kmh 30.00 in1015.9 mb 0.00 in0.0 mm 0.00 in/hr0.0 mm/hr 0.00 in0.0 mm
12:55 AM 13.6°F-10.2°C 4.0°F-15.6°C 65% 41.0 mph WSW66.0 kmh WSW 46.0 mph74.0 kmh 30.00 in1015.9 mb 0.00 in0.0 mm 0.00 in/hr0.0 mm/hr 0.00 in0.0 mm
01:00 AM 14.1°F-9.9°C 4.1°F-15.5°C 64% 18.0 mph W29.0 kmh W 46.0 mph74.0 kmh 29.99 in1015.6 mb 0.00 in0.0 mm 0.00 in/hr0.0 mm/hr 0.00 in0.0 mm
01:05 AM 14.3°F-9.8°C 3.6°F-15.8°C 62% 28.0 mph W45.1 kmh W 38.0 mph61.2 kmh 29.99 in1015.6 mb 0.00 in0.0 mm 0.00 in/hr0.0 mm/hr 0.00 in0.0 mm
01:10 AM 14.1°F-9.9°C 3.8°F-15.7°C 63% 32.0 mph WSW51.5 kmh WSW 39.0 mph62.8 kmh 29.99 in1015.6 mb 0.00 in0.0 mm 0.00 in/hr0.0 mm/hr 0.00 in0.0 mm
01:15 AM 14.6°F-9.7°C 3.9°F-15.6°C 62% 20.0 mph W32.2 kmh W 44.0 mph70.8 kmh 29.99 in1015.6 mb 0.00 in0.0 mm 0.00 in/hr0.0 mm/hr 0.00 in0.0 mm
01:20 AM 14.6°F-9.7°C 3.9°F-15.6°C 62% 23.0 mph WSW37.0 kmh WSW 35.0 mph56.3 kmh 29.99 in1015.6 mb 0.00 in0.0 mm 0.00 in/hr0.0 mm/hr 0.00 in0.0 mm
01:25 AM 14.6°F-9.7°C 3.6°F-15.8°C 61% 24.0 mph WSW38.6 kmh WSW 41.0 mph66.0 kmh 29.99 in1015.6 mb 0.00 in0.0 mm 0.00 in/hr0.0 mm/hr 0.00 in0.0 mm
01:30 AM 14.6°F-9.7°C 3.6°F-15.8°C 61% 19.0 mph SW30.6 kmh SW 34.0 mph54.7 kmh 29.99 in1015.6 mb 0.00 in0.0 mm 0.00 in/hr0.0 mm/hr 0.00 in0.0 mm
01:35 AM 14.6°F-9.7°C 3.6°F-15.8°C 61% 22.0 mph WSW35.4 kmh WSW 32.0 mph51.5 kmh 29.99 in1015.6 mb 0.00 in0.0 mm 0.00 in/hr0.0 mm/hr 0.00 in0.0 mm
01:40 AM 14.6°F-9.7°C 2.1°F-16.6°C 57% 22.0 mph W35.4 kmh W 28.0 mph45.1 kmh 29.99 in1015.6 mb 0.00 in0.0 mm 0.00 in/hr0.0 mm/hr 0.00 in0.0 mm
01:45 AM 14.6°F-9.7°C 3.2°F-16.0°C 60% 15.0 mph W24.1 kmh W 38.0 mph61.2 kmh 29.99 in1015.6 mb 0.00 in0.0 mm 0.00 in/hr0.0 mm/hr 0.00 in0.0 mm
01:50 AM 14.8°F-9.6°C 2.3°F-16.5°C 57% 28.0 mph W45.1 kmh W 36.0 mph57.9 kmh 29.99 in1015.6 mb 0.00 in0.0 mm 0.00 in/hr0.0 mm/hr 0.00 in0.0 mm
01:55 AM 14.8°F-9.6°C 2.3°F-16.5°C 57% 14.0 mph WSW22.5 kmh WSW 45.0 mph72.4 kmh 29.99 in1015.6 mb 0.00 in0.0 mm 0.00 in/hr0.0 mm/hr 0.00 in0.0 mm
02:00 AM 14.6°F-9.7°C 2.9°F-16.2°C 59% 23.0 mph WSW37.0 kmh WSW 47.0 mph75.6 kmh 29.96 in1014.6 mb 0.00 in0.0 mm 0.00 in/hr0.0 mm/hr 0.00 in0.0 mm
02:05 AM 14.6°F-9.7°C 2.5°F-16.4°C 58% 12.0 mph SSW19.3 kmh SSW 41.0 mph66.0 kmh 29.96 in1014.6 mb 0.00 in0.0 mm 0.00 in/hr0.0 mm/hr 0.00 in0.0 mm
02:10 AM 14.8°F-9.6°C 2.7°F-16.3°C 58% 16.0 mph SW25.7 kmh SW 54.0 mph86.9 kmh 29.96 in1014.6 mb 0.00 in0.0 mm 0.00 in/hr0.0 mm/hr 0.00 in0.0 mm
02:15 AM 14.9°F-9.5°C 2.4°F-16.4°C 57% 22.0 mph SW35.4 kmh SW 49.0 mph78.9 kmh 29.92 in1013.2 mb 0.00 in0.0 mm 0.00 in/hr0.0 mm/hr 0.00 in0.0 mm
02:20 AM 14.9°F-9.5°C 2.0°F-16.7°C 56% 27.0 mph W43.5 kmh W 48.0 mph77.2 kmh 29.92 in1013.2 mb 0.00 in0.0 mm 0.00 in/hr0.0 mm/hr 0.00 in0.0 mm
02:25 AM 15.1°F-9.4°C 2.2°F-16.6°C 56% 35.0 mph SW56.3 kmh SW 58.0 mph93.3 kmh 29.92 in1013.2 mb 0.00 in0.0 mm 0.00 in/hr0.0 mm/hr 0.00 in0.0 mm
02:30 AM 15.1°F-9.4°C 2.6°F-16.3°C 57% 29.0 mph SW46.7 kmh SW 51.0 mph82.1 kmh 29.93 in1013.5 mb 0.00 in0.0 mm 0.00 in/hr0.0 mm/hr 0.00 in0.0 mm
02:35 AM 15.1°F-9.4°C 2.6°F-16.3°C 57% 22.0 mph WSW35.4 kmh WSW 46.0 mph74.0 kmh 29.93 in1013.5 mb 0.00 in0.0 mm 0.00 in/hr0.0 mm/hr 0.00 in0.0 mm
02:40 AM 15.2°F-9.3°C 2.3°F-16.5°C 56% 34.0 mph WSW54.7 kmh WSW 42.0 mph67.6 kmh 29.93 in1013.5 mb 0.00 in0.0 mm 0.00 in/hr0.0 mm/hr 0.00 in0.0 mm
02:45 AM 15.6°F-9.1°C 1.9°F-16.7°C 54% 18.0 mph W29.0 kmh W 44.0 mph70.8 kmh 29.92 in1013.2 mb 0.00 in0.0 mm 0.00 in/hr0.0 mm/hr 0.00 in0.0 mm
02:50 AM 15.7°F-9.1°C 1.6°F-16.9°C 53% 19.0 mph S30.6 kmh S 32.0 mph51.5 kmh 29.92 in1013.2 mb 0.00 in0.0 mm 0.00 in/hr0.0 mm/hr 0.00 in0.0 mm
02:55 AM 15.7°F-9.1°C 1.6°F-16.9°C 53% 22.0 mph WSW35.4 kmh WSW 31.0 mph49.9 kmh 29.92 in1013.2 mb 0.00 in0.0 mm 0.00 in/hr0.0 mm/hr 0.00 in0.0 mm
03:00 AM 15.9°F-8.9°C 1.4°F-17.0°C 52% 21.0 mph WSW33.8 kmh WSW 43.0 mph69.2 kmh 29.92 in1013.2 mb 0.00 in0.0 mm 0.00 in/hr0.0 mm/hr 0.00 in0.0 mm
03:05 AM 16.1°F-8.8°C 1.6°F-16.9°C 52% 16.0 mph W25.7 kmh W 37.0 mph59.5 kmh 29.92 in1013.2 mb 0.00 in0.0 mm 0.00 in/hr0.0 mm/hr 0.00 in0.0 mm
03:10 AM 16.2°F-8.8°C 1.7°F-16.8°C 52% 36.0 mph WSW57.9 kmh WSW 40.0 mph64.4 kmh 29.92 in1013.2 mb 0.00 in0.0 mm 0.00 in/hr0.0 mm/hr 0.00 in0.0 mm
03:15 AM 16.4°F-8.7°C 1.8°F-16.8°C 52% 22.0 mph SW35.4 kmh SW 40.0 mph64.4 kmh 29.92 in1013.2 mb 0.00 in0.0 mm 0.00 in/hr0.0 mm/hr 0.00 in0.0 mm
03:20 AM 16.4°F-8.7°C 1.8°F-16.8°C 52% 20.0 mph W32.2 kmh W 48.0 mph77.2 kmh 29.92 in1013.2 mb 0.00 in0.0 mm 0.00 in/hr0.0 mm/hr 0.00 in0.0 mm
03:25 AM 16.4°F-8.7°C 1.8°F-16.8°C 52% 20.0 mph SW32.2 kmh SW 38.0 mph61.2 kmh 29.92 in1013.2 mb 0.00 in0.0 mm 0.00 in/hr0.0 mm/hr 0.00 in0.0 mm
03:30 AM 16.5°F-8.6°C 1.9°F-16.7°C 52% 18.0 mph SW29.0 kmh SW 36.0 mph57.9 kmh 29.95 in1014.2 mb 0.00 in0.0 mm 0.00 in/hr0.0 mm/hr 0.00 in0.0 mm
03:35 AM 16.5°F-8.6°C 2.3°F-16.5°C 53% 10.0 mph SW16.1 kmh SW 28.0 mph45.1 kmh 29.95 in1014.2 mb 0.00 in0.0 mm 0.00 in/hr0.0 mm/hr 0.00 in0.0 mm
03:40 AM 16.5°F-8.6°C 2.3°F-16.5°C 53% 7.0 mph S11.3 kmh S 22.0 mph35.4 kmh 29.95 in1014.2 mb 0.00 in0.0 mm 0.00 in/hr0.0 mm/hr 0.00 in0.0 mm
03:45 AM 16.4°F-8.7°C 2.2°F-16.6°C 53% 9.0 mph NW14.5 kmh NW 19.0 mph30.6 kmh 29.98 in1015.2 mb 0.00 in0.0 mm 0.00 in/hr0.0 mm/hr 0.00 in0.0 mm
03:50 AM 16.5°F-8.6°C 1.9°F-16.7°C 52% 1.0 mph WNW1.6 kmh WNW 14.0 mph22.5 kmh 29.98 in1015.2 mb 0.00 in0.0 mm 0.00 in/hr0.0 mm/hr 0.00 in0.0 mm
03:55 AM 16.4°F-8.7°C 2.2°F-16.6°C 53% 14.0 mph WSW22.5 kmh WSW 22.0 mph35.4 kmh 29.98 in1015.2 mb 0.00 in0.0 mm 0.00 in/hr0.0 mm/hr 0.00 in0.0 mm
04:00 AM 16.2°F-8.8°C 2.1°F-16.6°C 53% 24.0 mph WSW38.6 kmh WSW 25.0 mph40.2 kmh 29.95 in1014.2 mb 0.00 in0.0 mm 0.00 in/hr0.0 mm/hr 0.00 in0.0 mm
04:05 AM 16.5°F-8.6°C 1.5°F-16.9°C 51% 9.0 mph WSW14.5 kmh WSW 35.0 mph56.3 kmh 29.95 in1014.2 mb 0.00 in0.0 mm 0.00 in/hr0.0 mm/hr 0.00 in0.0 mm
04:10 AM 16.5°F-8.6°C 1.5°F-16.9°C 51% 15.0 mph S24.1 kmh S 27.0 mph43.5 kmh 29.95 in1014.2 mb 0.00 in0.0 mm 0.00 in/hr0.0 mm/hr 0.00 in0.0 mm
04:15 AM 16.5°F-8.6°C 1.9°F-16.7°C 52% 7.0 mph SW11.3 kmh SW 19.0 mph30.6 kmh 29.97 in1014.9 mb 0.00 in0.0 mm 0.00 in/hr0.0 mm/hr 0.00 in0.0 mm
04:20 AM 16.4°F-8.7°C 1.4°F-17.0°C 51% 28.0 mph WSW45.1 kmh WSW 36.0 mph57.9 kmh 29.97 in1014.9 mb 0.00 in0.0 mm 0.00 in/hr0.0 mm/hr 0.00 in0.0 mm
04:25 AM 16.4°F-8.7°C 1.4°F-17.0°C 51% 18.0 mph W29.0 kmh W 26.0 mph41.8 kmh 29.97 in1014.9 mb 0.00 in0.0 mm 0.00 in/hr0.0 mm/hr 0.00 in0.0 mm
04:30 AM 16.2°F-8.8°C 1.7°F-16.8°C 52% 12.0 mph W19.3 kmh W 49.0 mph78.9 kmh 29.97 in1014.9 mb 0.00 in0.0 mm 0.00 in/hr0.0 mm/hr 0.00 in0.0 mm
04:35 AM 16.2°F-8.8°C 1.7°F-16.8°C 52% 15.0 mph WNW24.1 kmh WNW 31.0 mph49.9 kmh 29.97 in1014.9 mb 0.00 in0.0 mm 0.00 in/hr0.0 mm/hr 0.00 in0.0 mm
04:40 AM 16.2°F-8.8°C 1.7°F-16.8°C 52% 17.0 mph SW27.4 kmh SW 39.0 mph62.8 kmh 29.97 in1014.9 mb 0.00 in0.0 mm 0.00 in/hr0.0 mm/hr 0.00 in0.0 mm
04:45 AM 16.2°F-8.8°C 2.1°F-16.6°C 53% 14.0 mph WSW22.5 kmh WSW 38.0 mph61.2 kmh 29.97 in1014.9 mb 0.00 in0.0 mm 0.00 in/hr0.0 mm/hr 0.00 in0.0 mm
04:50 AM 16.1°F-8.8°C 2.0°F-16.7°C 53% 19.0 mph WSW30.6 kmh WSW 37.0 mph59.5 kmh 29.97 in1014.9 mb 0.00 in0.0 mm 0.00 in/hr0.0 mm/hr 0.00 in0.0 mm
04:55 AM 16.5°F-8.6°C 1.9°F-16.7°C 52% 17.0 mph SW27.4 kmh SW 41.0 mph66.0 kmh 29.97 in1014.9 mb 0.00 in0.0 mm 0.00 in/hr0.0 mm/hr 0.00 in0.0 mm
05:00 AM 16.5°F-8.6°C 1.9°F-16.7°C 52% 15.0 mph W24.1 kmh W 38.0 mph61.2 kmh 29.96 in1014.6 mb 0.00 in0.0 mm 0.00 in/hr0.0 mm/hr 0.00 in0.0 mm
05:05 AM 16.5°F-8.6°C 1.9°F-16.7°C 52% 10.0 mph WSW16.1 kmh WSW 31.0 mph49.9 kmh 29.96 in1014.6 mb 0.00 in0.0 mm 0.00 in/hr0.0 mm/hr 0.00 in0.0 mm
05:10 AM 16.9°F-8.4°C 1.9°F-16.7°C 51% 10.0 mph W16.1 kmh W 43.0 mph69.2 kmh 29.96 in1014.6 mb 0.00 in0.0 mm 0.00 in/hr0.0 mm/hr 0.00 in0.0 mm
05:15 AM 17.2°F-8.2°C 1.7°F-16.8°C 50% 21.0 mph WSW33.8 kmh WSW 44.0 mph70.8 kmh 29.98 in1015.2 mb 0.00 in0.0 mm 0.00 in/hr0.0 mm/hr 0.00 in0.0 mm
05:20 AM 17.3°F-8.2°C 1.8°F-16.8°C 50% 15.0 mph SW24.1 kmh SW 29.0 mph46.7 kmh 29.98 in1015.2 mb 0.00 in0.0 mm 0.00 in/hr0.0 mm/hr 0.00 in0.0 mm
05:25 AM 17.3°F-8.2°C 1.4°F-17.0°C 49% 8.0 mph W12.9 kmh W 23.0 mph37.0 kmh 29.98 in1015.2 mb 0.00 in0.0 mm 0.00 in/hr0.0 mm/hr 0.00 in0.0 mm
05:30 AM 17.3°F-8.2°C 1.4°F-17.0°C 49% 14.0 mph W22.5 kmh W 20.0 mph32.2 kmh 29.97 in1014.9 mb 0.00 in0.0 mm 0.00 in/hr0.0 mm/hr 0.00 in0.0 mm
05:35 AM 17.7°F-7.9°C 1.8°F-16.8°C 49% 5.0 mph WSW8.0 kmh WSW 28.0 mph45.1 kmh 29.97 in1014.9 mb 0.00 in0.0 mm 0.00 in/hr0.0 mm/hr 0.00 in0.0 mm
05:40 AM 17.7°F-7.9°C 1.8°F-16.8°C 49% 14.0 mph SSW22.5 kmh SSW 24.0 mph38.6 kmh 29.97 in1014.9 mb 0.00 in0.0 mm 0.00 in/hr0.0 mm/hr 0.00 in0.0 mm
05:45 AM 17.8°F-7.9°C 2.3°F-16.5°C 50% 8.0 mph SW12.9 kmh SW 21.0 mph33.8 kmh 29.98 in1015.2 mb 0.00 in0.0 mm 0.00 in/hr0.0 mm/hr 0.00 in0.0 mm
05:50 AM 18.1°F-7.7°C 2.1°F-16.6°C 49% 15.0 mph WSW24.1 kmh WSW 30.0 mph48.3 kmh 29.98 in1015.2 mb 0.00 in0.0 mm 0.00 in/hr0.0 mm/hr 0.00 in0.0 mm
05:55 AM 18.3°F-7.6°C 1.9°F-16.7°C 48% 6.0 mph NW9.7 kmh NW 28.0 mph45.1 kmh 29.98 in1015.2 mb 0.00 in0.0 mm 0.00 in/hr0.0 mm/hr 0.00 in0.0 mm
06:00 AM 18.3°F-7.6°C 2.8°F-16.2°C 50% 10.0 mph SW16.1 kmh SW 23.0 mph37.0 kmh 29.98 in1015.2 mb 0.00 in0.0 mm 0.00 in/hr0.0 mm/hr 0.00 in0.0 mm
06:05 AM 18.1°F-7.7°C 2.1°F-16.6°C 49% 12.0 mph SW19.3 kmh SW 22.0 mph35.4 kmh 29.98 in1015.2 mb 0.00 in0.0 mm 0.00 in/hr0.0 mm/hr 0.00 in0.0 mm
06:10 AM 18.3°F-7.6°C 2.8°F-16.2°C 50% 11.0 mph WNW17.7 kmh WNW 39.0 mph62.8 kmh 29.98 in1015.2 mb 0.00 in0.0 mm 0.00 in/hr0.0 mm/hr 0.00 in0.0 mm
06:15 AM 18.3°F-7.6°C 2.3°F-16.5°C 49% 14.0 mph SW22.5 kmh SW 27.0 mph43.5 kmh 29.97 in1014.9 mb 0.00 in0.0 mm 0.00 in/hr0.0 mm/hr 0.00 in0.0 mm
06:20 AM 18.3°F-7.6°C 2.8°F-16.2°C 50% 13.0 mph WSW20.9 kmh WSW 27.0 mph43.5 kmh 29.97 in1014.9 mb 0.00 in0.0 mm 0.00 in/hr0.0 mm/hr 0.00 in0.0 mm
06:25 AM 18.3°F-7.6°C 2.8°F-16.2°C 50% 7.0 mph SW11.3 kmh SW 22.0 mph35.4 kmh 29.97 in1014.9 mb 0.00 in0.0 mm 0.00 in/hr0.0 mm/hr 0.00 in0.0 mm
06:30 AM 18.3°F-7.6°C 3.2°F-16.0°C 51% 22.0 mph SSW35.4 kmh SSW 25.0 mph40.2 kmh 29.96 in1014.6 mb 0.00 in0.0 mm 0.00 in/hr0.0 mm/hr 0.00 in0.0 mm
06:35 AM 18.3°F-7.6°C 3.6°F-15.8°C 52% 15.0 mph WSW24.1 kmh WSW 26.0 mph41.8 kmh 29.96 in1014.6 mb 0.00 in0.0 mm 0.00 in/hr0.0 mm/hr 0.00 in0.0 mm
06:40 AM 18.3°F-7.6°C 3.6°F-15.8°C 52% 9.0 mph W14.5 kmh W 23.0 mph37.0 kmh 29.96 in1014.6 mb 0.00 in0.0 mm 0.00 in/hr0.0 mm/hr 0.00 in0.0 mm
06:45 AM 18.1°F-7.7°C 3.8°F-15.7°C 53% 11.0 mph NNW17.7 kmh NNW 24.0 mph38.6 kmh 29.96 in1014.6 mb 0.00 in0.0 mm 0.00 in/hr0.0 mm/hr 0.00 in0.0 mm
06:50 AM 18.0°F-7.8°C 3.7°F-15.7°C 53% 2.0 mph W3.2 kmh W 20.0 mph32.2 kmh 29.96 in1014.6 mb 0.00 in0.0 mm 0.00 in/hr0.0 mm/hr 0.00 in0.0 mm
06:55 AM 17.8°F-7.9°C 4.0°F-15.6°C 54% 9.0 mph SW14.5 kmh SW 18.0 mph29.0 kmh 29.96 in1014.6 mb 0.00 in0.0 mm 0.00 in/hr0.0 mm/hr 0.00 in0.0 mm
07:00 AM 17.8°F-7.9°C 4.0°F-15.6°C 54% 7.0 mph SSW11.3 kmh SSW 30.0 mph48.3 kmh 29.96 in1014.6 mb 0.00 in0.0 mm 0.00 in/hr0.0 mm/hr 0.00 in0.0 mm
07:05 AM 17.8°F-7.9°C 4.0°F-15.6°C 54% 25.0 mph WNW40.2 kmh WNW 35.0 mph56.3 kmh 29.96 in1014.6 mb 0.00 in0.0 mm 0.00 in/hr0.0 mm/hr 0.00 in0.0 mm
07:10 AM 17.7°F-7.9°C 3.9°F-15.6°C 54% 15.0 mph SW24.1 kmh SW 39.0 mph62.8 kmh 29.96 in1014.6 mb 0.00 in0.0 mm 0.00 in/hr0.0 mm/hr 0.00 in0.0 mm
07:15 AM 17.7°F-7.9°C 3.9°F-15.6°C 54% 19.0 mph W30.6 kmh W 47.0 mph75.6 kmh 29.97 in1014.9 mb 0.00 in0.0 mm 0.00 in/hr0.0 mm/hr 0.00 in0.0 mm
07:20 AM 17.7°F-7.9°C 3.9°F-15.6°C 54% 14.0 mph W22.5 kmh W 27.0 mph43.5 kmh 29.97 in1014.9 mb 0.00 in0.0 mm 0.00 in/hr0.0 mm/hr 0.00 in0.0 mm
07:25 AM 18.0°F-7.8°C 3.7°F-15.7°C 53% 15.0 mph SW24.1 kmh SW 24.0 mph38.6 kmh 29.97 in1014.9 mb 0.00 in0.0 mm 0.00 in/hr0.0 mm/hr 0.00 in0.0 mm
07:30 AM 18.1°F-7.7°C 3.4°F-15.9°C 52% 13.0 mph SW20.9 kmh SW 20.0 mph32.2 kmh 29.97 in1014.9 mb 0.00 in0.0 mm 0.00 in/hr0.0 mm/hr 0.00 in0.0 mm
07:35 AM 18.3°F-7.6°C 3.6°F-15.8°C 52% 11.0 mph SW17.7 kmh SW 18.0 mph29.0 kmh 29.97 in1014.9 mb 0.00 in0.0 mm 0.00 in/hr0.0 mm/hr 0.00 in0.0 mm
07:40 AM 18.4°F-7.6°C 3.7°F-15.7°C 52% 14.0 mph W22.5 kmh W 35.0 mph56.3 kmh 29.97 in1014.9 mb 0.00 in0.0 mm 0.00 in/hr0.0 mm/hr 0.00 in0.0 mm
07:45 AM 18.4°F-7.6°C 4.1°F-15.5°C 53% 19.0 mph SW30.6 kmh SW 42.0 mph67.6 kmh 29.96 in1014.6 mb 0.00 in0.0 mm 0.00 in/hr0.0 mm/hr 0.00 in0.0 mm
07:50 AM 18.6°F-7.4°C 3.9°F-15.6°C 52% 29.0 mph WSW46.7 kmh WSW 40.0 mph64.4 kmh 29.96 in1014.6 mb 0.00 in0.0 mm 0.00 in/hr0.0 mm/hr 0.00 in0.0 mm
07:55 AM 18.8°F-7.3°C 4.1°F-15.5°C 52% 9.0 mph WSW14.5 kmh WSW 38.0 mph61.2 kmh 29.96 in1014.6 mb 0.00 in0.0 mm 0.00 in/hr0.0 mm/hr 0.00 in0.0 mm
08:00 AM 18.9°F-7.3°C 4.2°F-15.4°C 52% 16.0 mph W25.7 kmh W 49.0 mph78.9 kmh 29.95 in1014.2 mb 0.00 in0.0 mm 0.00 in/hr0.0 mm/hr 0.00 in0.0 mm
08:05 AM 18.9°F-7.3°C 4.2°F-15.4°C 52% 8.0 mph WNW12.9 kmh WNW 46.0 mph74.0 kmh 29.95 in1014.2 mb 0.00 in0.0 mm 0.00 in/hr0.0 mm/hr 0.00 in0.0 mm
08:10 AM 18.8°F-7.3°C 4.5°F-15.3°C 53% 20.0 mph W32.2 kmh W 45.0 mph72.4 kmh 29.95 in1014.2 mb 0.00 in0.0 mm 0.00 in/hr0.0 mm/hr 0.00 in0.0 mm
08:15 AM 19.1°F-7.2°C 4.4°F-15.3°C 52% 11.0 mph NW17.7 kmh NW 39.0 mph62.8 kmh 29.94 in1013.9 mb 0.00 in0.0 mm 0.00 in/hr0.0 mm/hr 0.00 in0.0 mm
08:20 AM 19.4°F-7.0°C 3.8°F-15.7°C 50% 5.0 mph SW8.0 kmh SW 44.0 mph70.8 kmh 29.94 in1013.9 mb 0.00 in0.0 mm 0.00 in/hr0.0 mm/hr 0.00 in0.0 mm
08:25 AM 19.7°F-6.8°C 4.1°F-15.5°C 50% 8.0 mph WSW12.9 kmh WSW 39.0 mph62.8 kmh 29.94 in1013.9 mb 0.00 in0.0 mm 0.00 in/hr0.0 mm/hr 0.00 in0.0 mm
08:35 AM 19.2°F-7.1°C 4.4°F-15.3°C 52% 24.0 mph SW38.6 kmh SW 45.0 mph72.4 kmh 29.96 in1014.6 mb 0.00 in0.0 mm 0.00 in/hr0.0 mm/hr 0.00 in0.0 mm
08:40 AM 19.2°F-7.1°C 4.4°F-15.3°C 52% 6.0 mph SW9.7 kmh SW 41.0 mph66.0 kmh 29.96 in1014.6 mb 0.00 in0.0 mm 0.00 in/hr0.0 mm/hr 0.00 in0.0 mm
08:45 AM 19.5°F-6.9°C 4.3°F-15.4°C 51% 3.0 mph WSW4.8 kmh WSW 34.0 mph54.7 kmh 29.98 in1015.2 mb 0.00 in0.0 mm 0.00 in/hr0.0 mm/hr 0.00 in0.0 mm
08:50 AM 19.7°F-6.8°C 4.1°F-15.5°C 50% 3.0 mph SW4.8 kmh SW 22.0 mph35.4 kmh 29.98 in1015.2 mb 0.00 in0.0 mm 0.00 in/hr0.0 mm/hr 0.00 in0.0 mm
08:55 AM 19.9°F-6.7°C 4.2°F-15.4°C 50% 12.0 mph WSW19.3 kmh WSW 21.0 mph33.8 kmh 29.98 in1015.2 mb 0.00 in0.0 mm 0.00 in/hr0.0 mm/hr 0.00 in0.0 mm
09:00 AM 20.0°F-6.7°C 3.9°F-15.6°C 49% 14.0 mph SSW22.5 kmh SSW 28.0 mph45.1 kmh 29.98 in1015.2 mb 0.00 in0.0 mm 0.00 in/hr0.0 mm/hr 0.00 in0.0 mm
09:05 AM 20.2°F-6.6°C 3.6°F-15.8°C 48% 8.0 mph S12.9 kmh S 37.0 mph59.5 kmh 29.98 in1015.2 mb 0.00 in0.0 mm 0.00 in/hr0.0 mm/hr 0.00 in0.0 mm
09:10 AM 20.0°F-6.7°C 3.9°F-15.6°C 49% 21.0 mph WSW33.8 kmh WSW 37.0 mph59.5 kmh 29.98 in1015.2 mb 0.00 in0.0 mm 0.00 in/hr0.0 mm/hr 0.00 in0.0 mm
09:15 AM 20.0°F-6.7°C 4.3°F-15.4°C 50% 7.0 mph W11.3 kmh W 32.0 mph51.5 kmh 29.95 in1014.2 mb 0.00 in0.0 mm 0.00 in/hr0.0 mm/hr 0.00 in0.0 mm
09:20 AM 19.9°F-6.7°C 4.2°F-15.4°C 50% 1.0 mph NW1.6 kmh NW 28.0 mph45.1 kmh 29.95 in1014.2 mb 0.00 in0.0 mm 0.00 in/hr0.0 mm/hr 0.00 in0.0 mm
09:25 AM 20.0°F-6.7°C 3.9°F-15.6°C 49% 13.0 mph W20.9 kmh W 38.0 mph61.2 kmh 29.95 in1014.2 mb 0.00 in0.0 mm 0.00 in/hr0.0 mm/hr 0.00 in0.0 mm
09:30 AM 20.3°F-6.5°C 4.2°F-15.4°C 49% 3.0 mph SW4.8 kmh SW 55.0 mph88.5 kmh 29.94 in1013.9 mb 0.00 in0.0 mm 0.00 in/hr0.0 mm/hr 0.00 in0.0 mm
09:35 AM 20.3°F-6.5°C 4.2°F-15.4°C 49% 7.0 mph NW11.3 kmh NW 34.0 mph54.7 kmh 29.94 in1013.9 mb 0.00 in0.0 mm 0.00 in/hr0.0 mm/hr 0.00 in0.0 mm
09:40 AM 20.3°F-6.5°C 4.6°F-15.2°C 50% 9.0 mph W14.5 kmh W 32.0 mph51.5 kmh 29.94 in1013.9 mb 0.00 in0.0 mm 0.00 in/hr0.0 mm/hr 0.00 in0.0 mm
09:45 AM 20.3°F-6.5°C 4.6°F-15.2°C 50% 10.0 mph W16.1 kmh W 43.0 mph69.2 kmh 29.90 in1012.5 mb 0.00 in0.0 mm 0.00 in/hr0.0 mm/hr 0.00 in0.0 mm
09:50 AM 20.8°F-6.2°C 4.6°F-15.2°C 49% 8.0 mph SW12.9 kmh SW 45.0 mph72.4 kmh 29.90 in1012.5 mb 0.00 in0.0 mm 0.00 in/hr0.0 mm/hr 0.00 in0.0 mm
09:55 AM 21.3°F-5.9°C 5.1°F-14.9°C 49% 17.0 mph W27.4 kmh W 40.0 mph64.4 kmh 29.90 in1012.5 mb 0.00 in0.0 mm 0.00 in/hr0.0 mm/hr 0.00 in0.0 mm
10:00 AM 21.4°F-5.9°C 4.7°F-15.2°C 48% 33.0 mph WSW53.1 kmh WSW 62.0 mph99.8 kmh 29.90 in1012.5 mb 0.00 in0.0 mm 0.00 in/hr0.0 mm/hr 0.00 in0.0 mm
10:05 AM 21.1°F-6.1°C 5.4°F-14.8°C 50% 17.0 mph NW27.4 kmh NW 59.0 mph95.0 kmh 29.90 in1012.5 mb 0.00 in0.0 mm 0.00 in/hr0.0 mm/hr 0.00 in0.0 mm
10:10 AM 21.1°F-6.1°C 5.4°F-14.8°C 50% 30.0 mph NW48.3 kmh NW 57.0 mph91.7 kmh 29.90 in1012.5 mb 0.00 in0.0 mm 0.00 in/hr0.0 mm/hr 0.00 in0.0 mm
10:15 AM 21.3°F-5.9°C 5.1°F-14.9°C 49% 32.0 mph NW51.5 kmh NW 46.0 mph74.0 kmh 29.88 in1011.9 mb 0.00 in0.0 mm 0.00 in/hr0.0 mm/hr 0.00 in0.0 mm
10:20 AM 21.4°F-5.9°C 5.6°F-14.7°C 50% 42.0 mph WNW67.6 kmh WNW 51.0 mph82.1 kmh 29.88 in1011.9 mb 0.00 in0.0 mm 0.00 in/hr0.0 mm/hr 0.00 in0.0 mm
10:25 AM 21.6°F-5.8°C 6.3°F-14.3°C 51% 17.0 mph SW27.4 kmh SW 45.0 mph72.4 kmh 29.88 in1011.9 mb 0.00 in0.0 mm 0.00 in/hr0.0 mm/hr 0.00 in0.0 mm
10:30 AM 21.8°F-5.7°C 6.0°F-14.4°C 50% 13.0 mph WNW20.9 kmh WNW 54.0 mph86.9 kmh 29.90 in1012.5 mb 0.00 in0.0 mm 0.00 in/hr0.0 mm/hr 0.00 in0.0 mm
10:35 AM 21.9°F-5.6°C 5.7°F-14.6°C 49% 28.0 mph W45.1 kmh W 56.0 mph90.1 kmh 29.90 in1012.5 mb 0.00 in0.0 mm 0.00 in/hr0.0 mm/hr 0.00 in0.0 mm
10:40 AM 22.2°F-5.4°C 5.5°F-14.7°C 48% 16.0 mph W25.7 kmh W 65.0 mph104.6 kmh 29.90 in1012.5 mb 0.00 in0.0 mm 0.00 in/hr0.0 mm/hr 0.00 in0.0 mm
10:45 AM 22.5°F-5.3°C 5.3°F-14.8°C 47% 13.0 mph NNW20.9 kmh NNW 66.0 mph106.2 kmh 29.89 in1012.2 mb 0.00 in0.0 mm 0.00 in/hr0.0 mm/hr 0.00 in0.0 mm
10:50 AM 22.7°F-5.2°C 5.5°F-14.7°C 47% 19.0 mph W30.6 kmh W 69.0 mph111.0 kmh 29.89 in1012.2 mb 0.00 in0.0 mm 0.00 in/hr0.0 mm/hr 0.00 in0.0 mm
10:55 AM 22.9°F-5.1°C 5.7°F-14.6°C 47% 29.0 mph WNW46.7 kmh WNW 54.0 mph86.9 kmh 29.89 in1012.2 mb 0.00 in0.0 mm 0.00 in/hr0.0 mm/hr 0.00 in0.0 mm
11:00 AM 22.9°F-5.1°C 6.6°F-14.1°C 49% 56.0 mph NW90.1 kmh NW 64.0 mph103.0 kmh 29.89 in1012.2 mb 0.00 in0.0 mm 0.00 in/hr0.0 mm/hr 0.00 in0.0 mm
11:05 AM 22.9°F-5.1°C 6.1°F-14.4°C 48% 26.0 mph W41.8 kmh W 65.0 mph104.6 kmh 29.89 in1012.2 mb 0.00 in0.0 mm 0.00 in/hr0.0 mm/hr 0.00 in0.0 mm
11:10 AM 23.2°F-4.9°C 6.4°F-14.2°C 48% 27.0 mph W43.5 kmh W 60.0 mph96.6 kmh 29.89 in1012.2 mb 0.00 in0.0 mm 0.00 in/hr0.0 mm/hr 0.00 in0.0 mm
11:15 AM 23.2°F-4.9°C 6.9°F-13.9°C 49% 33.0 mph W53.1 kmh W 68.0 mph109.4 kmh 29.89 in1012.2 mb 0.00 in0.0 mm 0.00 in/hr0.0 mm/hr 0.00 in0.0 mm
11:20 AM 23.2°F-4.9°C 7.7°F-13.5°C 51% 18.0 mph WNW29.0 kmh WNW 61.0 mph98.2 kmh 29.89 in1012.2 mb 0.00 in0.0 mm 0.00 in/hr0.0 mm/hr 0.00 in0.0 mm
11:25 AM 23.2°F-4.9°C 6.4°F-14.2°C 48% 17.0 mph NW27.4 kmh NW 60.0 mph96.6 kmh 29.89 in1012.2 mb 0.00 in0.0 mm 0.00 in/hr0.0 mm/hr 0.00 in0.0 mm
11:30 AM 23.3°F-4.8°C 7.4°F-13.7°C 50% 49.0 mph NW78.9 kmh NW 56.0 mph90.1 kmh 29.88 in1011.9 mb 0.00 in0.0 mm 0.00 in/hr0.0 mm/hr 0.00 in0.0 mm
11:35 AM 23.5°F-4.7°C 6.7°F-14.1°C 48% 33.0 mph WSW53.1 kmh WSW 53.0 mph85.3 kmh 29.88 in1011.9 mb 0.00 in0.0 mm 0.00 in/hr0.0 mm/hr 0.00 in0.0 mm
11:40 AM 23.6°F-4.7°C 7.2°F-13.8°C 49% 34.0 mph WSW54.7 kmh WSW 64.0 mph103.0 kmh 29.88 in1011.9 mb 0.00 in0.0 mm 0.00 in/hr0.0 mm/hr 0.00 in0.0 mm
11:45 AM 23.8°F-4.6°C 7.0°F-13.9°C 48% 28.0 mph W45.1 kmh W 61.0 mph98.2 kmh 29.89 in1012.2 mb 0.01 in0.3 mm 0.12 in/hr3.0 mm/hr 0.01 in0.3 mm
11:50 AM 23.9°F-4.5°C 7.0°F-13.9°C 48% 24.0 mph W38.6 kmh W 60.0 mph96.6 kmh 29.89 in1012.2 mb 0.01 in0.3 mm 0.00 in/hr0.0 mm/hr 0.01 in0.3 mm
11:55 AM 23.8°F-4.6°C 7.0°F-13.9°C 48% 34.0 mph WNW54.7 kmh WNW 73.0 mph117.5 kmh 29.89 in1012.2 mb 0.01 in0.3 mm 0.00 in/hr0.0 mm/hr 0.01 in0.3 mm
12:00 PM 24.1°F-4.4°C 8.1°F-13.3°C 50% 41.0 mph WNW66.0 kmh WNW 75.0 mph120.7 kmh 29.90 in1012.5 mb 0.01 in0.3 mm 0.00 in/hr0.0 mm/hr 0.01 in0.3 mm
12:05 PM 24.4°F-4.2°C 8.4°F-13.1°C 50% 30.0 mph W48.3 kmh W 56.0 mph90.1 kmh 29.90 in1012.5 mb 0.01 in0.3 mm 0.00 in/hr0.0 mm/hr 0.01 in0.3 mm
12:10 PM 24.1°F-4.4°C 8.1°F-13.3°C 50% 7.0 mph NW11.3 kmh NW 68.0 mph109.4 kmh 29.90 in1012.5 mb 0.01 in0.3 mm 0.00 in/hr0.0 mm/hr 0.01 in0.3 mm
12:15 PM 24.2°F-4.3°C 8.2°F-13.2°C 50% 26.0 mph W41.8 kmh W 54.0 mph86.9 kmh 29.91 in1012.9 mb 0.01 in0.3 mm 0.00 in/hr0.0 mm/hr 0.01 in0.3 mm
12:20 PM 24.8°F-4.0°C 8.3°F-13.2°C 49% 13.0 mph WNW20.9 kmh WNW 42.0 mph67.6 kmh 29.91 in1012.9 mb 0.01 in0.3 mm 0.00 in/hr0.0 mm/hr 0.01 in0.3 mm
12:25 PM 24.7°F-4.1°C 8.2°F-13.2°C 49% 19.0 mph WNW30.6 kmh WNW 49.0 mph78.9 kmh 29.91 in1012.9 mb 0.01 in0.3 mm 0.00 in/hr0.0 mm/hr 0.01 in0.3 mm
12:30 PM 24.8°F-4.0°C 8.8°F-12.9°C 50% 16.0 mph WSW25.7 kmh WSW 54.0 mph86.9 kmh 29.89 in1012.2 mb 0.01 in0.3 mm 0.00 in/hr0.0 mm/hr 0.01 in0.3 mm
12:35 PM 24.5°F-4.2°C 8.5°F-13.1°C 50% 41.0 mph NW66.0 kmh NW 64.0 mph103.0 kmh 29.89 in1012.2 mb 0.01 in0.3 mm 0.00 in/hr0.0 mm/hr 0.01 in0.3 mm
12:40 PM 24.7°F-4.1°C 9.1°F-12.7°C 51% 49.0 mph NNW78.9 kmh NNW 53.0 mph85.3 kmh 29.89 in1012.2 mb 0.01 in0.3 mm 0.00 in/hr0.0 mm/hr 0.01 in0.3 mm
12:45 PM 24.5°F-4.2°C 8.5°F-13.1°C 50% 38.0 mph W61.2 kmh W 57.0 mph91.7 kmh 29.91 in1012.9 mb 0.00 in0.0 mm 0.00 in/hr0.0 mm/hr 0.01 in0.3 mm
12:50 PM 24.4°F-4.2°C 8.4°F-13.1°C 50% 35.0 mph NW56.3 kmh NW 57.0 mph91.7 kmh 29.91 in1012.9 mb 0.00 in0.0 mm 0.00 in/hr0.0 mm/hr 0.01 in0.3 mm
12:55 PM 24.4°F-4.2°C 9.7°F-12.4°C 53% 18.0 mph NW29.0 kmh NW 56.0 mph90.1 kmh 29.91 in1012.9 mb 0.00 in0.0 mm 0.00 in/hr0.0 mm/hr 0.01 in0.3 mm
01:00 PM 24.7°F-4.1°C 9.6°F-12.4°C 52% 11.0 mph W17.7 kmh W 48.0 mph77.2 kmh 29.87 in1011.5 mb 0.00 in0.0 mm 0.00 in/hr0.0 mm/hr 0.01 in0.3 mm
01:05 PM 24.4°F-4.2°C 9.7°F-12.4°C 53% 36.0 mph W57.9 kmh W 46.0 mph74.0 kmh 29.87 in1011.5 mb 0.00 in0.0 mm 0.00 in/hr0.0 mm/hr 0.01 in0.3 mm
01:10 PM 24.4°F-4.2°C 9.7°F-12.4°C 53% 21.0 mph SW33.8 kmh SW 57.0 mph91.7 kmh 29.87 in1011.5 mb 0.00 in0.0 mm 0.00 in/hr0.0 mm/hr 0.01 in0.3 mm
01:15 PM 24.2°F-4.3°C 9.9°F-12.3°C 54% 45.0 mph W72.4 kmh W 48.0 mph77.2 kmh 29.87 in1011.5 mb 0.00 in0.0 mm 0.00 in/hr0.0 mm/hr 0.01 in0.3 mm
01:20 PM 24.4°F-4.2°C 9.7°F-12.4°C 53% 59.0 mph WSW95.0 kmh WSW 48.0 mph77.2 kmh 29.87 in1011.5 mb 0.00 in0.0 mm 0.00 in/hr0.0 mm/hr 0.01 in0.3 mm
01:30 PM 24.2°F-4.3°C 10.3°F-12.1°C 55% 34.0 mph W54.7 kmh W 53.0 mph85.3 kmh 29.87 in1011.5 mb 0.00 in0.0 mm 0.00 in/hr0.0 mm/hr 0.01 in0.3 mm
01:35 PM 24.4°F-4.2°C 9.3°F-12.6°C 52% 30.0 mph W48.3 kmh W 57.0 mph91.7 kmh 29.87 in1011.5 mb 0.00 in0.0 mm 0.00 in/hr0.0 mm/hr 0.01 in0.3 mm
01:40 PM 24.5°F-4.2°C 10.2°F-12.1°C 54% 53.0 mph WSW85.3 kmh WSW 55.0 mph88.5 kmh 29.87 in1011.5 mb 0.00 in0.0 mm 0.00 in/hr0.0 mm/hr 0.01 in0.3 mm
01:45 PM 24.8°F-4.0°C 10.5°F-11.9°C 54% 30.0 mph WNW48.3 kmh WNW 55.0 mph88.5 kmh 29.87 in1011.5 mb 0.00 in0.0 mm 0.00 in/hr0.0 mm/hr 0.01 in0.3 mm
01:50 PM 24.8°F-4.0°C 10.9°F-11.7°C 55% 16.0 mph NW25.7 kmh NW 45.0 mph72.4 kmh 29.87 in1011.5 mb 0.00 in0.0 mm 0.00 in/hr0.0 mm/hr 0.01 in0.3 mm
01:55 PM 25.0°F-3.9°C 11.1°F-11.6°C 55% 18.0 mph W29.0 kmh W 45.0 mph72.4 kmh 29.87 in1011.5 mb 0.00 in0.0 mm 0.00 in/hr0.0 mm/hr 0.01 in0.3 mm
02:00 PM 24.8°F-4.0°C 10.5°F-11.9°C 54% 17.0 mph WSW27.4 kmh WSW 55.0 mph88.5 kmh 29.87 in1011.5 mb 0.00 in0.0 mm 0.00 in/hr0.0 mm/hr 0.01 in0.3 mm
02:05 PM 25.0°F-3.9°C 10.7°F-11.8°C 54% 31.0 mph SW49.9 kmh SW 62.0 mph99.8 kmh 29.87 in1011.5 mb 0.00 in0.0 mm 0.00 in/hr0.0 mm/hr 0.01 in0.3 mm
02:10 PM 25.1°F-3.8°C 9.9°F-12.3°C 52% 26.0 mph W41.8 kmh W 51.0 mph82.1 kmh 29.87 in1011.5 mb 0.00 in0.0 mm 0.00 in/hr0.0 mm/hr 0.01 in0.3 mm
02:15 PM 25.3°F-3.7°C 10.1°F-12.2°C 52% 31.0 mph NW49.9 kmh NW 56.0 mph90.1 kmh 29.88 in1011.9 mb 0.00 in0.0 mm 0.00 in/hr0.0 mm/hr 0.01 in0.3 mm
02:20 PM 25.3°F-3.7°C 10.1°F-12.2°C 52% 36.0 mph WNW57.9 kmh WNW 46.0 mph74.0 kmh 29.88 in1011.9 mb 0.00 in0.0 mm 0.00 in/hr0.0 mm/hr 0.01 in0.3 mm
02:25 PM 25.3°F-3.7°C 10.1°F-12.2°C 52% 24.0 mph SW38.6 kmh SW 54.0 mph86.9 kmh 29.88 in1011.9 mb 0.00 in0.0 mm 0.00 in/hr0.0 mm/hr 0.01 in0.3 mm
02:30 PM 25.4°F-3.7°C 9.8°F-12.3°C 51% 24.0 mph SW38.6 kmh SW 50.0 mph80.5 kmh 29.88 in1011.9 mb 0.00 in0.0 mm 0.00 in/hr0.0 mm/hr 0.01 in0.3 mm
02:35 PM 25.4°F-3.7°C 9.8°F-12.3°C 51% 25.0 mph WSW40.2 kmh WSW 52.0 mph83.7 kmh 29.88 in1011.9 mb 0.00 in0.0 mm 0.00 in/hr0.0 mm/hr 0.01 in0.3 mm
02:40 PM 25.6°F-3.6°C 10.0°F-12.2°C 51% 31.0 mph W49.9 kmh W 46.0 mph74.0 kmh 29.88 in1011.9 mb 0.00 in0.0 mm 0.00 in/hr0.0 mm/hr 0.01 in0.3 mm
02:45 PM 25.3°F-3.7°C 10.1°F-12.2°C 52% 13.0 mph W20.9 kmh W 56.0 mph90.1 kmh 29.89 in1012.2 mb 0.00 in0.0 mm 0.00 in/hr0.0 mm/hr 0.01 in0.3 mm
02:50 PM 25.4°F-3.7°C 10.6°F-11.9°C 53% 21.0 mph NW33.8 kmh NW 56.0 mph90.1 kmh 29.89 in1012.2 mb 0.00 in0.0 mm 0.00 in/hr0.0 mm/hr 0.01 in0.3 mm
02:55 PM 25.3°F-3.7°C 10.5°F-11.9°C 53% 27.0 mph W43.5 kmh W 54.0 mph86.9 kmh 29.89 in1012.2 mb 0.00 in0.0 mm 0.00 in/hr0.0 mm/hr 0.01 in0.3 mm
03:00 PM 25.1°F-3.8°C 10.8°F-11.8°C 54% 26.0 mph NW41.8 kmh NW 57.0 mph91.7 kmh 29.89 in1012.2 mb 0.00 in0.0 mm 0.00 in/hr0.0 mm/hr 0.01 in0.3 mm
03:05 PM 25.3°F-3.7°C 11.0°F-11.7°C 54% 14.0 mph NW22.5 kmh NW 51.0 mph82.1 kmh 29.89 in1012.2 mb 0.00 in0.0 mm 0.00 in/hr0.0 mm/hr 0.01 in0.3 mm
03:10 PM 25.4°F-3.7°C 10.6°F-11.9°C 53% 19.0 mph NW30.6 kmh NW 46.0 mph74.0 kmh 29.89 in1012.2 mb 0.00 in0.0 mm 0.00 in/hr0.0 mm/hr 0.01 in0.3 mm
03:15 PM 25.8°F-3.4°C 11.0°F-11.7°C 53% 24.0 mph W38.6 kmh W 45.0 mph72.4 kmh 29.92 in1013.2 mb 0.00 in0.0 mm 0.00 in/hr0.0 mm/hr 0.01 in0.3 mm
03:20 PM 25.3°F-3.7°C 11.4°F-11.4°C 55% 23.0 mph W37.0 kmh W 48.0 mph77.2 kmh 29.92 in1013.2 mb 0.00 in0.0 mm 0.00 in/hr0.0 mm/hr 0.01 in0.3 mm
03:25 PM 25.1°F-3.8°C 11.6°F-11.3°C 56% 29.0 mph W46.7 kmh W 35.0 mph56.3 kmh 29.92 in1013.2 mb 0.00 in0.0 mm 0.00 in/hr0.0 mm/hr 0.01 in0.3 mm
03:35 PM 26.0°F-3.3°C 10.3°F-12.1°C 51% 37.0 mph SW59.5 kmh SW 48.0 mph77.2 kmh 29.91 in1012.9 mb 0.00 in0.0 mm 0.00 in/hr0.0 mm/hr 0.01 in0.3 mm
03:40 PM 25.8°F-3.4°C 10.1°F-12.2°C 51% 37.0 mph SW59.5 kmh SW 56.0 mph90.1 kmh 29.91 in1012.9 mb 0.00 in0.0 mm 0.00 in/hr0.0 mm/hr 0.01 in0.3 mm
03:45 PM 26.0°F-3.3°C 9.9°F-12.3°C 50% 26.0 mph W41.8 kmh W 58.0 mph93.3 kmh 29.87 in1011.5 mb 0.00 in0.0 mm 0.00 in/hr0.0 mm/hr 0.01 in0.3 mm
03:50 PM 26.0°F-3.3°C 9.9°F-12.3°C 50% 47.0 mph NW75.6 kmh NW 55.0 mph88.5 kmh 29.87 in1011.5 mb 0.00 in0.0 mm 0.00 in/hr0.0 mm/hr 0.01 in0.3 mm
03:55 PM 26.1°F-3.3°C 9.5°F-12.5°C 49% 30.0 mph W48.3 kmh W 50.0 mph80.5 kmh 29.87 in1011.5 mb 0.00 in0.0 mm 0.00 in/hr0.0 mm/hr 0.01 in0.3 mm
04:00 PM 26.1°F-3.3°C 9.5°F-12.5°C 49% 40.0 mph WSW64.4 kmh WSW 52.0 mph83.7 kmh 29.85 in1010.8 mb 0.00 in0.0 mm 0.00 in/hr0.0 mm/hr 0.01 in0.3 mm
04:05 PM 26.1°F-3.3°C 9.1°F-12.7°C 48% 25.0 mph WNW40.2 kmh WNW 58.0 mph93.3 kmh 29.85 in1010.8 mb 0.00 in0.0 mm 0.00 in/hr0.0 mm/hr 0.01 in0.3 mm
04:10 PM 26.1°F-3.3°C 9.1°F-12.7°C 48% 13.0 mph SE20.9 kmh SE 47.0 mph75.6 kmh 29.85 in1010.8 mb 0.00 in0.0 mm 0.00 in/hr0.0 mm/hr 0.01 in0.3 mm
04:15 PM 26.3°F-3.2°C 9.3°F-12.6°C 48% 31.0 mph W49.9 kmh W 46.0 mph74.0 kmh 29.85 in1010.8 mb 0.00 in0.0 mm 0.00 in/hr0.0 mm/hr 0.01 in0.3 mm
04:20 PM 26.3°F-3.2°C 8.8°F-12.9°C 47% 41.0 mph SW66.0 kmh SW 45.0 mph72.4 kmh 29.85 in1010.8 mb 0.00 in0.0 mm 0.00 in/hr0.0 mm/hr 0.01 in0.3 mm
04:25 PM 26.1°F-3.3°C 9.1°F-12.7°C 48% 17.0 mph W27.4 kmh W 45.0 mph72.4 kmh 29.85 in1010.8 mb 0.00 in0.0 mm 0.00 in/hr0.0 mm/hr 0.01 in0.3 mm
04:30 PM 26.3°F-3.2°C 9.3°F-12.6°C 48% 27.0 mph WSW43.5 kmh WSW 49.0 mph78.9 kmh 29.84 in1010.5 mb 0.00 in0.0 mm 0.00 in/hr0.0 mm/hr 0.01 in0.3 mm
04:35 PM 26.1°F-3.3°C 9.1°F-12.7°C 48% 22.0 mph WSW35.4 kmh WSW 51.0 mph82.1 kmh 29.84 in1010.5 mb 0.00 in0.0 mm 0.00 in/hr0.0 mm/hr 0.01 in0.3 mm
04:40 PM 26.0°F-3.3°C 9.9°F-12.3°C 50% 38.0 mph NW61.2 kmh NW 48.0 mph77.2 kmh 29.84 in1010.5 mb 0.00 in0.0 mm 0.00 in/hr0.0 mm/hr 0.01 in0.3 mm
04:45 PM 25.8°F-3.4°C 9.7°F-12.4°C 50% 20.0 mph WNW32.2 kmh WNW 54.0 mph86.9 kmh 29.87 in1011.5 mb 0.00 in0.0 mm 0.00 in/hr0.0 mm/hr 0.01 in0.3 mm
04:50 PM 25.4°F-3.7°C 10.2°F-12.1°C 52% 11.0 mph WSW17.7 kmh WSW 50.0 mph80.5 kmh 29.87 in1011.5 mb 0.00 in0.0 mm 0.00 in/hr0.0 mm/hr 0.01 in0.3 mm
04:55 PM 25.0°F-3.9°C 11.1°F-11.6°C 55% 16.0 mph W25.7 kmh W 52.0 mph83.7 kmh 29.87 in1011.5 mb 0.00 in0.0 mm 0.00 in/hr0.0 mm/hr 0.01 in0.3 mm
05:00 PM 24.8°F-4.0°C 11.3°F-11.5°C 56% 22.0 mph W35.4 kmh W 55.0 mph88.5 kmh 29.85 in1010.8 mb 0.00 in0.0 mm 0.00 in/hr0.0 mm/hr 0.01 in0.3 mm
05:05 PM 24.8°F-4.0°C 10.9°F-11.7°C 55% 39.0 mph W62.8 kmh W 48.0 mph77.2 kmh 29.85 in1010.8 mb 0.00 in0.0 mm 0.00 in/hr0.0 mm/hr 0.01 in0.3 mm
05:10 PM 25.0°F-3.9°C 10.7°F-11.8°C 54% 14.0 mph W22.5 kmh W 41.0 mph66.0 kmh 29.85 in1010.8 mb 0.00 in0.0 mm 0.00 in/hr0.0 mm/hr 0.01 in0.3 mm
05:15 PM 25.1°F-3.8°C 10.4°F-12.0°C 53% 24.0 mph W38.6 kmh W 50.0 mph80.5 kmh 29.86 in1011.2 mb 0.00 in0.0 mm 0.00 in/hr0.0 mm/hr 0.01 in0.3 mm
05:20 PM 25.3°F-3.7°C 10.1°F-12.2°C 52% 11.0 mph W17.7 kmh W 51.0 mph82.1 kmh 29.86 in1011.2 mb 0.00 in0.0 mm 0.00 in/hr0.0 mm/hr 0.01 in0.3 mm
05:25 PM 25.3°F-3.7°C 10.1°F-12.2°C 52% 12.0 mph WSW19.3 kmh WSW 41.0 mph66.0 kmh 29.86 in1011.2 mb 0.00 in0.0 mm 0.00 in/hr0.0 mm/hr 0.01 in0.3 mm
05:30 PM 25.6°F-3.6°C 10.4°F-12.0°C 52% 28.0 mph WSW45.1 kmh WSW 52.0 mph83.7 kmh 29.85 in1010.8 mb 0.00 in0.0 mm 0.00 in/hr0.0 mm/hr 0.01 in0.3 mm
05:35 PM 25.4°F-3.7°C 10.2°F-12.1°C 52% 25.0 mph SW40.2 kmh SW 44.0 mph70.8 kmh 29.85 in1010.8 mb 0.00 in0.0 mm 0.00 in/hr0.0 mm/hr 0.01 in0.3 mm
05:40 PM 25.6°F-3.6°C 10.0°F-12.2°C 51% 22.0 mph WSW35.4 kmh WSW 53.0 mph85.3 kmh 29.85 in1010.8 mb 0.00 in0.0 mm 0.00 in/hr0.0 mm/hr 0.01 in0.3 mm
05:45 PM 25.7°F-3.5°C 10.1°F-12.2°C 51% 25.0 mph SW40.2 kmh SW 48.0 mph77.2 kmh 29.86 in1011.2 mb 0.00 in0.0 mm 0.00 in/hr0.0 mm/hr 0.01 in0.3 mm
05:50 PM 25.7°F-3.5°C 10.5°F-11.9°C 52% 30.0 mph WSW48.3 kmh WSW 54.0 mph86.9 kmh 29.86 in1011.2 mb 0.00 in0.0 mm 0.00 in/hr0.0 mm/hr 0.01 in0.3 mm
05:55 PM 25.7°F-3.5°C 10.1°F-12.2°C 51% 17.0 mph WNW27.4 kmh WNW 52.0 mph83.7 kmh 29.86 in1011.2 mb 0.00 in0.0 mm 0.00 in/hr0.0 mm/hr 0.01 in0.3 mm
06:00 PM 25.6°F-3.6°C 10.4°F-12.0°C 52% 20.0 mph SW32.2 kmh SW 59.0 mph95.0 kmh 29.89 in1012.2 mb 0.00 in0.0 mm 0.00 in/hr0.0 mm/hr 0.01 in0.3 mm
06:05 PM 25.6°F-3.6°C 10.4°F-12.0°C 52% 19.0 mph W30.6 kmh W 43.0 mph69.2 kmh 29.89 in1012.2 mb 0.00 in0.0 mm 0.00 in/hr0.0 mm/hr 0.01 in0.3 mm
06:10 PM 25.6°F-3.6°C 10.8°F-11.8°C 53% 25.0 mph W40.2 kmh W 49.0 mph78.9 kmh 29.89 in1012.2 mb 0.00 in0.0 mm 0.00 in/hr0.0 mm/hr 0.01 in0.3 mm
06:15 PM 25.6°F-3.6°C 10.8°F-11.8°C 53% 26.0 mph SW41.8 kmh SW 46.0 mph74.0 kmh 29.87 in1011.5 mb 0.00 in0.0 mm 0.00 in/hr0.0 mm/hr 0.01 in0.3 mm
06:20 PM 25.6°F-3.6°C 10.8°F-11.8°C 53% 23.0 mph WSW37.0 kmh WSW 45.0 mph72.4 kmh 29.87 in1011.5 mb 0.00 in0.0 mm 0.00 in/hr0.0 mm/hr 0.01 in0.3 mm
06:25 PM 25.7°F-3.5°C 10.9°F-11.7°C 53% 27.0 mph W43.5 kmh W 44.0 mph70.8 kmh 29.87 in1011.5 mb 0.00 in0.0 mm 0.00 in/hr0.0 mm/hr 0.01 in0.3 mm
06:30 PM 25.8°F-3.4°C 11.0°F-11.7°C 53% 36.0 mph W57.9 kmh W 47.0 mph75.6 kmh 29.85 in1010.8 mb 0.00 in0.0 mm 0.00 in/hr0.0 mm/hr 0.01 in0.3 mm
06:35 PM 26.1°F-3.3°C 11.3°F-11.5°C 53% 13.0 mph NW20.9 kmh NW 48.0 mph77.2 kmh 29.85 in1010.8 mb 0.00 in0.0 mm 0.00 in/hr0.0 mm/hr 0.01 in0.3 mm
06:40 PM 26.0°F-3.3°C 11.2°F-11.6°C 53% 8.0 mph WNW12.9 kmh WNW 45.0 mph72.4 kmh 29.85 in1010.8 mb 0.00 in0.0 mm 0.00 in/hr0.0 mm/hr 0.01 in0.3 mm
06:45 PM 26.1°F-3.3°C 11.3°F-11.5°C 53% 41.0 mph WSW66.0 kmh WSW 50.0 mph80.5 kmh 29.88 in1011.9 mb 0.00 in0.0 mm 0.00 in/hr0.0 mm/hr 0.01 in0.3 mm
06:50 PM 26.0°F-3.3°C 11.2°F-11.6°C 53% 10.0 mph W16.1 kmh W 48.0 mph77.2 kmh 29.88 in1011.9 mb 0.00 in0.0 mm 0.00 in/hr0.0 mm/hr 0.01 in0.3 mm
06:55 PM 26.1°F-3.3°C 11.7°F-11.3°C 54% 17.0 mph NW27.4 kmh NW 50.0 mph80.5 kmh 29.88 in1011.9 mb 0.00 in0.0 mm 0.00 in/hr0.0 mm/hr 0.01 in0.3 mm
07:00 PM 26.1°F-3.3°C 12.1°F-11.1°C 55% 21.0 mph NW33.8 kmh NW 46.0 mph74.0 kmh 29.86 in1011.2 mb 0.00 in0.0 mm 0.00 in/hr0.0 mm/hr 0.01 in0.3 mm
07:05 PM 26.1°F-3.3°C 12.5°F-10.8°C 56% 22.0 mph W35.4 kmh W 57.0 mph91.7 kmh 29.86 in1011.2 mb 0.00 in0.0 mm 0.00 in/hr0.0 mm/hr 0.01 in0.3 mm
07:10 PM 25.7°F-3.5°C 13.3°F-10.4°C 59% 37.0 mph WNW59.5 kmh WNW 47.0 mph75.6 kmh 29.86 in1011.2 mb 0.00 in0.0 mm 0.00 in/hr0.0 mm/hr 0.01 in0.3 mm
07:15 PM 25.3°F-3.7°C 14.1°F-9.9°C 62% 16.0 mph WNW25.7 kmh WNW 50.0 mph80.5 kmh 29.87 in1011.5 mb 0.00 in0.0 mm 0.00 in/hr0.0 mm/hr 0.01 in0.3 mm
07:20 PM 25.1°F-3.8°C 13.5°F-10.3°C 61% 16.0 mph WSW25.7 kmh WSW 44.0 mph70.8 kmh 29.87 in1011.5 mb 0.00 in0.0 mm 0.00 in/hr0.0 mm/hr 0.01 in0.3 mm
07:25 PM 25.6°F-3.6°C 12.9°F-10.6°C 58% 35.0 mph NW56.3 kmh NW 49.0 mph78.9 kmh 29.87 in1011.5 mb 0.00 in0.0 mm 0.00 in/hr0.0 mm/hr 0.01 in0.3 mm
07:30 PM 25.8°F-3.4°C 13.0°F-10.6°C 58% 20.0 mph NNW32.2 kmh NNW 46.0 mph74.0 kmh 29.87 in1011.5 mb 0.00 in0.0 mm 0.00 in/hr0.0 mm/hr 0.01 in0.3 mm
07:35 PM 25.6°F-3.6°C 13.6°F-10.2°C 60% 16.0 mph SW25.7 kmh SW 49.0 mph78.9 kmh 29.87 in1011.5 mb 0.00 in0.0 mm 0.00 in/hr0.0 mm/hr 0.01 in0.3 mm
07:40 PM 25.4°F-3.7°C 13.8°F-10.1°C 61% 29.0 mph WNW46.7 kmh WNW 55.0 mph88.5 kmh 29.87 in1011.5 mb 0.00 in0.0 mm 0.00 in/hr0.0 mm/hr 0.01 in0.3 mm
07:45 PM 25.7°F-3.5°C 12.9°F-10.6°C 58% 31.0 mph NW49.9 kmh NW 45.0 mph72.4 kmh 29.85 in1010.8 mb 0.00 in0.0 mm 0.00 in/hr0.0 mm/hr 0.01 in0.3 mm
07:50 PM 25.8°F-3.4°C 12.6°F-10.8°C 57% 16.0 mph WSW25.7 kmh WSW 48.0 mph77.2 kmh 29.85 in1010.8 mb 0.00 in0.0 mm 0.00 in/hr0.0 mm/hr 0.01 in0.3 mm
07:55 PM 25.8°F-3.4°C 13.0°F-10.6°C 58% 15.0 mph W24.1 kmh W 41.0 mph66.0 kmh 29.85 in1010.8 mb 0.00 in0.0 mm 0.00 in/hr0.0 mm/hr 0.01 in0.3 mm
08:00 PM 25.7°F-3.5°C 13.3°F-10.4°C 59% 25.0 mph SW40.2 kmh SW 48.0 mph77.2 kmh 29.88 in1011.9 mb 0.00 in0.0 mm 0.00 in/hr0.0 mm/hr 0.01 in0.3 mm
08:05 PM 25.8°F-3.4°C 13.4°F-10.3°C 59% 9.0 mph W14.5 kmh W 37.0 mph59.5 kmh 29.88 in1011.9 mb 0.00 in0.0 mm 0.00 in/hr0.0 mm/hr 0.01 in0.3 mm
08:10 PM 26.0°F-3.3°C 13.2°F-10.4°C 58% 22.0 mph WNW35.4 kmh WNW 41.0 mph66.0 kmh 29.88 in1011.9 mb 0.00 in0.0 mm 0.00 in/hr0.0 mm/hr 0.01 in0.3 mm
08:15 PM 26.3°F-3.2°C 12.7°F-10.7°C 56% 6.0 mph WSW9.7 kmh WSW 41.0 mph66.0 kmh 29.86 in1011.2 mb 0.00 in0.0 mm 0.00 in/hr0.0 mm/hr 0.01 in0.3 mm
08:20 PM 26.6°F-3.0°C 12.6°F-10.8°C 55% 17.0 mph W27.4 kmh W 43.0 mph69.2 kmh 29.86 in1011.2 mb 0.00 in0.0 mm 0.00 in/hr0.0 mm/hr 0.01 in0.3 mm
08:25 PM 26.9°F-2.8°C 12.5°F-10.8°C 54% 33.0 mph WSW53.1 kmh WSW 49.0 mph78.9 kmh 29.86 in1011.2 mb 0.00 in0.0 mm 0.00 in/hr0.0 mm/hr 0.01 in0.3 mm
08:30 PM 27.2°F-2.7°C 12.3°F-10.9°C 53% 13.0 mph NW20.9 kmh NW 35.0 mph56.3 kmh 29.87 in1011.5 mb 0.00 in0.0 mm 0.00 in/hr0.0 mm/hr 0.01 in0.3 mm
08:35 PM 27.2°F-2.7°C 12.7°F-10.7°C 54% 11.0 mph WNW17.7 kmh WNW 36.0 mph57.9 kmh 29.87 in1011.5 mb 0.00 in0.0 mm 0.00 in/hr0.0 mm/hr 0.01 in0.3 mm
08:40 PM 27.3°F-2.6°C 12.4°F-10.9°C 53% 13.0 mph WSW20.9 kmh WSW 32.0 mph51.5 kmh 29.87 in1011.5 mb 0.00 in0.0 mm 0.00 in/hr0.0 mm/hr 0.01 in0.3 mm
08:45 PM 27.5°F-2.5°C 12.2°F-11.0°C 52% 3.0 mph SW4.8 kmh SW 40.0 mph64.4 kmh 29.91 in1012.9 mb 0.00 in0.0 mm 0.00 in/hr0.0 mm/hr 0.01 in0.3 mm
08:50 PM 27.5°F-2.5°C 12.2°F-11.0°C 52% 5.0 mph SSW8.0 kmh SSW 28.0 mph45.1 kmh 29.91 in1012.9 mb 0.00 in0.0 mm 0.00 in/hr0.0 mm/hr 0.01 in0.3 mm
08:55 PM 27.5°F-2.5°C 11.7°F-11.3°C 51% 4.0 mph W6.4 kmh W 26.0 mph41.8 kmh 29.91 in1012.9 mb 0.00 in0.0 mm 0.00 in/hr0.0 mm/hr 0.01 in0.3 mm
09:00 PM 27.6°F-2.4°C 12.3°F-10.9°C 52% Calm Calm 24.0 mph38.6 kmh 29.91 in1012.9 mb 0.00 in0.0 mm 0.00 in/hr0.0 mm/hr 0.01 in0.3 mm
09:05 PM 27.5°F-2.5°C 12.2°F-11.0°C 52% 1.0 mph N1.6 kmh N 8.0 mph12.9 kmh 29.91 in1012.9 mb 0.00 in0.0 mm 0.00 in/hr0.0 mm/hr 0.01 in0.3 mm
09:10 PM 27.5°F-2.5°C 12.2°F-11.0°C 52% 8.0 mph SSW12.9 kmh SSW 14.0 mph22.5 kmh 29.91 in1012.9 mb 0.00 in0.0 mm 0.00 in/hr0.0 mm/hr 0.01 in0.3 mm
09:15 PM 27.6°F-2.4°C 12.3°F-10.9°C 52% 15.0 mph S24.1 kmh S 20.0 mph32.2 kmh 29.90 in1012.5 mb 0.00 in0.0 mm 0.00 in/hr0.0 mm/hr 0.01 in0.3 mm
09:20 PM 27.8°F-2.3°C 12.0°F-11.1°C 51% 4.0 mph WNW6.4 kmh WNW 12.0 mph19.3 kmh 29.90 in1012.5 mb 0.00 in0.0 mm 0.00 in/hr0.0 mm/hr 0.01 in0.3 mm
09:25 PM 27.9°F-2.3°C 12.1°F-11.1°C 51% 5.0 mph E8.0 kmh E 13.0 mph20.9 kmh 29.90 in1012.5 mb 0.00 in0.0 mm 0.00 in/hr0.0 mm/hr 0.01 in0.3 mm
09:30 PM 27.8°F-2.3°C 12.0°F-11.1°C 51% 2.0 mph S3.2 kmh S 8.0 mph12.9 kmh 29.90 in1012.5 mb 0.00 in0.0 mm 0.00 in/hr0.0 mm/hr 0.01 in0.3 mm
09:35 PM 27.6°F-2.4°C 11.8°F-11.2°C 51% 11.0 mph W17.7 kmh W 16.0 mph25.7 kmh 29.90 in1012.5 mb 0.00 in0.0 mm 0.00 in/hr0.0 mm/hr 0.01 in0.3 mm
09:40 PM 27.8°F-2.3°C 12.0°F-11.1°C 51% 20.0 mph S32.2 kmh S 30.0 mph48.3 kmh 29.90 in1012.5 mb 0.00 in0.0 mm 0.00 in/hr0.0 mm/hr 0.01 in0.3 mm
09:45 PM 27.9°F-2.3°C 12.1°F-11.1°C 51% 22.0 mph S35.4 kmh S 31.0 mph49.9 kmh 29.87 in1011.5 mb 0.00 in0.0 mm 0.00 in/hr0.0 mm/hr 0.01 in0.3 mm
09:50 PM 27.9°F-2.3°C 12.1°F-11.1°C 51% 8.0 mph WSW12.9 kmh WSW 41.0 mph66.0 kmh 29.87 in1011.5 mb 0.00 in0.0 mm 0.00 in/hr0.0 mm/hr 0.01 in0.3 mm
09:55 PM 27.8°F-2.3°C 12.4°F-10.9°C 52% 14.0 mph WNW22.5 kmh WNW 42.0 mph67.6 kmh 29.87 in1011.5 mb 0.00 in0.0 mm 0.00 in/hr0.0 mm/hr 0.01 in0.3 mm
10:00 PM 27.8°F-2.3°C 12.4°F-10.9°C 52% 16.0 mph WSW25.7 kmh WSW 55.0 mph88.5 kmh 29.83 in1010.2 mb 0.00 in0.0 mm 0.00 in/hr0.0 mm/hr 0.01 in0.3 mm
10:05 PM 27.8°F-2.3°C 12.4°F-10.9°C 52% 26.0 mph SW41.8 kmh SW 41.0 mph66.0 kmh 29.83 in1010.2 mb 0.00 in0.0 mm 0.00 in/hr0.0 mm/hr 0.01 in0.3 mm
10:10 PM 27.8°F-2.3°C 12.4°F-10.9°C 52% 29.0 mph W46.7 kmh W 41.0 mph66.0 kmh 29.83 in1010.2 mb 0.00 in0.0 mm 0.00 in/hr0.0 mm/hr 0.01 in0.3 mm
10:15 PM 28.4°F-2.0°C 12.1°F-11.1°C 50% 24.0 mph W38.6 kmh W 67.0 mph107.8 kmh 29.78 in1008.5 mb 0.00 in0.0 mm 0.00 in/hr0.0 mm/hr 0.01 in0.3 mm
10:20 PM 28.4°F-2.0°C 12.1°F-11.1°C 50% 24.0 mph W38.6 kmh W 55.0 mph88.5 kmh 29.78 in1008.5 mb 0.00 in0.0 mm 0.00 in/hr0.0 mm/hr 0.01 in0.3 mm
10:25 PM 28.5°F-1.9°C 12.2°F-11.0°C 50% 35.0 mph NW56.3 kmh NW 61.0 mph98.2 kmh 29.78 in1008.5 mb 0.00 in0.0 mm 0.00 in/hr0.0 mm/hr 0.01 in0.3 mm
10:30 PM 28.7°F-1.8°C 11.9°F-11.2°C 49% 39.0 mph WNW62.8 kmh WNW 56.0 mph90.1 kmh 29.74 in1007.1 mb 0.00 in0.0 mm 0.00 in/hr0.0 mm/hr 0.01 in0.3 mm
10:35 PM 28.7°F-1.8°C 12.4°F-10.9°C 50% 44.0 mph NW70.8 kmh NW 50.0 mph80.5 kmh 29.74 in1007.1 mb 0.00 in0.0 mm 0.00 in/hr0.0 mm/hr 0.01 in0.3 mm
10:40 PM 28.5°F-1.9°C 12.2°F-11.0°C 50% 63.0 mph NW101.4 kmh NW 60.0 mph96.6 kmh 29.74 in1007.1 mb 0.00 in0.0 mm 0.00 in/hr0.0 mm/hr 0.01 in0.3 mm
10:45 PM 28.8°F-1.8°C 12.0°F-11.1°C 49% 56.0 mph WSW90.1 kmh WSW 63.0 mph101.4 kmh 29.73 in1006.8 mb 0.00 in0.0 mm 0.00 in/hr0.0 mm/hr 0.01 in0.3 mm
10:50 PM 28.5°F-1.9°C 12.7°F-10.7°C 51% 50.0 mph WNW80.5 kmh WNW 68.0 mph109.4 kmh 29.73 in1006.8 mb 0.00 in0.0 mm 0.00 in/hr0.0 mm/hr 0.01 in0.3 mm
10:55 PM 28.5°F-1.9°C 12.7°F-10.7°C 51% 36.0 mph NW57.9 kmh NW 58.0 mph93.3 kmh 29.73 in1006.8 mb 0.00 in0.0 mm 0.00 in/hr0.0 mm/hr 0.01 in0.3 mm
11:00 PM 28.5°F-1.9°C 13.1°F-10.5°C 52% 42.0 mph WNW67.6 kmh WNW 51.0 mph82.1 kmh 29.71 in1006.1 mb 0.00 in0.0 mm 0.00 in/hr0.0 mm/hr 0.01 in0.3 mm
11:05 PM 29.0°F-1.7°C 11.3°F-11.5°C 47% 33.0 mph W53.1 kmh W 62.0 mph99.8 kmh 29.71 in1006.1 mb 0.00 in0.0 mm 0.00 in/hr0.0 mm/hr 0.01 in0.3 mm
11:10 PM 29.0°F-1.7°C 13.1°F-10.5°C 51% 36.0 mph W57.9 kmh W 57.0 mph91.7 kmh 29.71 in1006.1 mb 0.00 in0.0 mm 0.00 in/hr0.0 mm/hr 0.01 in0.3 mm
11:15 PM 29.0°F-1.7°C 13.1°F-10.5°C 51% 34.0 mph W54.7 kmh W 69.0 mph111.0 kmh 29.71 in1006.1 mb 0.00 in0.0 mm 0.00 in/hr0.0 mm/hr 0.01 in0.3 mm
11:20 PM 28.8°F-1.8°C 13.8°F-10.1°C 53% 10.0 mph W16.1 kmh W 55.0 mph88.5 kmh 29.71 in1006.1 mb 0.00 in0.0 mm 0.00 in/hr0.0 mm/hr 0.01 in0.3 mm
11:25 PM 28.5°F-1.9°C 15.6°F-9.1°C 58% 33.0 mph W53.1 kmh W 53.0 mph85.3 kmh 29.71 in1006.1 mb 0.00 in0.0 mm 0.00 in/hr0.0 mm/hr 0.01 in0.3 mm
11:30 PM 28.4°F-2.0°C 13.9°F-10.1°C 54% 22.0 mph W35.4 kmh W 54.0 mph86.9 kmh 29.68 in1005.1 mb 0.00 in0.0 mm 0.00 in/hr0.0 mm/hr 0.01 in0.3 mm
11:35 PM 28.5°F-1.9°C 13.9°F-10.1°C 54% 31.0 mph WSW49.9 kmh WSW 50.0 mph80.5 kmh 29.68 in1005.1 mb 0.00 in0.0 mm 0.00 in/hr0.0 mm/hr 0.01 in0.3 mm
11:40 PM 29.0°F-1.7°C 13.6°F-10.2°C 52% 24.0 mph NW38.6 kmh NW 62.0 mph99.8 kmh 29.68 in1005.1 mb 0.00 in0.0 mm 0.00 in/hr0.0 mm/hr 0.01 in0.3 mm
11:45 PM 29.0°F-1.7°C 14.0°F-10.0°C 53% 21.0 mph W33.8 kmh W 67.0 mph107.8 kmh 29.69 in1005.4 mb 0.00 in0.0 mm 0.00 in/hr0.0 mm/hr 0.01 in0.3 mm
11:50 PM 28.7°F-1.8°C 14.6°F-9.7°C 55% 20.0 mph SW32.2 kmh SW 68.0 mph109.4 kmh 29.69 in1005.4 mb 0.00 in0.0 mm 0.00 in/hr0.0 mm/hr 0.01 in0.3 mm
11:55 PM 28.8°F-1.8°C 14.6°F-9.7°C 55% 35.0 mph W56.3 kmh W 62.0 mph99.8 kmh 29.69 in1005.4 mb 0.00 in0.0 mm 0.00 in/hr0.0 mm/hr 0.01 in0.3 mm